Hauptseite
METAR-TAF:

METAR-TAF

Flughäfen :

Flughafen Heringsdorf

Heringsdorf, Deutschland

Breite: 53-53N, Länge: 014-09E, Höhe: 28 m

Beobachtung

Neuester Wetterbericht von vor 10 Stunden und 8 Minuten, um 14:50 UTC
Wind 14 kt aus Nordost, variierte zwischen Nord und Ost/Nordost
Temperatur 14°C
Luftfeuchtigkeit 63%
Luftdruck 1025 hPa
Sichtweite 10 km oder mehr
keine Wolken unter 1500 m und keine Kumulonimbus oder Gewitterwolken

METAR: EDAH 301450Z 04014KT 360V070 CAVOK 14/07 Q1025

Zeit: 02:58 (00:58 UTC)

Prognose

Neuester Wetterbericht von vor 10 Stunden und 58 Minuten, um 14:00 UTC
Gültige Prognose vom 30 um 15 UTC bis 30 um 24 UTC
Wind 12 kt aus Nord/Nordost
Sichtweite 10 km oder mehr
keine Wolken unter 1500 m und keine Kumulonimbus oder Gewitterwolken
Zeitweise
vom 30 um 15 UTC bis 30 um 16 UTC
Wind 15 kt aus Nord/Nordost, Böen bis zu 25 kt

TAF: EDAH 301400Z 3015/3024 03012KT CAVOK TEMPO 3015/3016 03015G25KT

Wetterbeobachtungen und Prognosen von mehr als 4000 Flughäfen (METAR und TAF Bericht).

Die verfügbaren Stationen werden durch gelbe und rote Markierungen auf der Karte dargestellt.

Führen Sie die Maus auf sie, um den Namen der Station zu sehen.

Darauf klicken, um die Beobachtung von Wetterbeobachtungen und Prognosen zu sehen.

Um die Karte zu ändern : klicken Sie auf den grünen Tasten mit einem schwarzen Kreuz Zum Vergrößern, auf den grünen Button mit einem Gedankenstrich zu verkleinern, oder auf die grünen Pfeile für benachbarte Karten.


METAR-TAF: